Time;durP1;ratioP1;P1;durP2;ratioP2;P2;SDS_P1;SDS_P2;PMS_P1;PMS_P2;Temp;Humidity;BMP_temperature;BMP_pressure;BME280_temperature;BME280_humidity;BME280_pressure;Samples;Min_cycle;Max_cycle;Signal;HPM_P1;HPM_P2
2021/03/27 00:02:03;;;;;;;12.80;11.50;;;;;;;;;;5049386;28;20452;-65
2021/03/27 00:04:36;;;;;;;11.60;10.53;;;;;;;;;;5032734;28;20444;-67
2021/03/27 00:07:07;;;;;;;12.90;11.70;;;;;;;;;;5049476;28;20466;-65
2021/03/27 00:09:36;;;;;;;12.83;11.63;;;;;;;;;;5051726;28;20483;-65
2021/03/27 00:12:06;;;;;;;13.10;11.80;;;;;;;;;;5051452;28;20451;-65
2021/03/27 00:14:38;;;;;;;13.33;11.97;;;;;;;;;;5051633;28;20484;-65
2021/03/27 00:17:08;;;;;;;13.17;11.90;;;;;;;;;;5046062;28;20447;-64
2021/03/27 00:19:38;;;;;;;13.63;12.30;;;;;;;;;;5048515;28;20913;-66
2021/03/27 00:22:08;;;;;;;13.07;11.77;;;;;;;;;;5038931;28;20463;-65
2021/03/27 00:24:54;;;;;;;13.63;12.23;;;;;;;;;;5047455;28;20455;-64
2021/03/27 00:27:23;;;;;;;12.90;11.70;;;;;;;;;;5052432;28;20535;-65
2021/03/27 00:29:52;;;;;;;16.93;12.70;;;;;;;;;;5050900;28;20471;-66
2021/03/27 00:32:20;;;;;;;14.10;12.80;;;;;;;;;;5033357;28;20453;-65
2021/03/27 00:34:50;;;;;;;14.63;13.23;;;;;;;;;;5045619;28;20487;-65
2021/03/27 00:37:19;;;;;;;15.10;13.77;;;;;;;;;;5050694;28;20542;-65
2021/03/27 00:39:48;;;;;;;13.40;12.00;;;;;;;;;;5049900;28;20472;-65
2021/03/27 00:42:16;;;;;;;14.43;13.10;;;;;;;;;;5051060;28;20543;-66
2021/03/27 00:44:45;;;;;;;13.93;12.60;;;;;;;;;;5033144;28;20453;-65
2021/03/27 00:47:15;;;;;;;13.77;12.47;;;;;;;;;;5047182;28;20534;-64
2021/03/27 00:49:44;;;;;;;14.33;12.60;;;;;;;;;;5033567;28;20481;-64
2021/03/27 00:52:12;;;;;;;14.40;12.90;;;;;;;;;;5036151;28;20602;-65
2021/03/27 00:54:41;;;;;;;14.17;12.87;;;;;;;;;;5034577;28;20571;-65
2021/03/27 00:57:09;;;;;;;14.30;12.90;;;;;;;;;;5047994;28;20447;-64
2021/03/27 00:59:37;;;;;;;15.47;12.60;;;;;;;;;;5035271;28;20487;-64
2021/03/27 01:02:08;;;;;;;13.83;12.63;;;;;;;;;;5047406;28;20451;-64
2021/03/27 01:04:36;;;;;;;14.67;13.30;;;;;;;;;;5050466;28;20857;-66
2021/03/27 01:07:04;;;;;;;13.00;11.77;;;;;;;;;;5049933;28;20444;-67
2021/03/27 01:09:33;;;;;;;13.70;12.30;;;;;;;;;;5050769;28;20463;-65
2021/03/27 01:12:02;;;;;;;13.90;12.70;;;;;;;;;;5050547;28;20501;-64
2021/03/27 01:14:32;;;;;;;14.13;12.83;;;;;;;;;;5050125;28;20590;-65
2021/03/27 01:17:00;;;;;;;14.17;12.77;;;;;;;;;;5050982;28;20478;-64
2021/03/27 01:19:28;;;;;;;13.73;12.33;;;;;;;;;;5048609;28;20839;-64
2021/03/27 01:21:57;;;;;;;13.83;12.60;;;;;;;;;;5046183;28;20452;-64
2021/03/27 01:24:25;;;;;;;14.10;12.70;;;;;;;;;;5050182;28;20821;-66
2021/03/27 01:26:53;;;;;;;13.37;12.17;;;;;;;;;;5037617;28;20448;-65
2021/03/27 01:29:23;;;;;;;16.10;12.60;;;;;;;;;;5046538;28;20473;-66
2021/03/27 01:31:52;;;;;;;12.47;11.37;;;;;;;;;;5050219;28;20455;-64
2021/03/27 01:34:22;;;;;;;14.03;12.63;;;;;;;;;;5048697;28;20484;-64
2021/03/27 01:36:52;;;;;;;13.13;11.93;;;;;;;;;;5049017;28;20448;-65
2021/03/27 01:39:21;;;;;;;14.40;13.10;;;;;;;;;;5050675;28;20985;-64
2021/03/27 01:41:54;;;;;;;13.00;11.90;;;;;;;;;;5049808;28;20543;-66
2021/03/27 01:44:27;;;;;;;12.87;11.67;;;;;;;;;;5050782;28;20971;-65
2021/03/27 01:47:00;;;;;;;13.50;12.20;;;;;;;;;;5040229;28;20539;-65
2021/03/27 01:49:31;;;;;;;13.27;12.17;;;;;;;;;;5051991;28;20606;-64
2021/03/27 01:52:06;;;;;;;14.37;12.90;;;;;;;;;;5039760;28;20573;-64
2021/03/27 01:54:35;;;;;;;14.23;12.93;;;;;;;;;;5037566;28;20997;-65
2021/03/27 01:57:12;;;;;;;14.47;13.07;;;;;;;;;;5039599;28;20463;-64
2021/03/27 01:59:40;;;;;;;14.40;12.90;;;;;;;;;;5053504;28;20562;-66
2021/03/27 02:02:09;;;;;;;16.00;12.80;;;;;;;;;;5054085;28;20564;-64
2021/03/27 02:04:37;;;;;;;13.43;12.03;;;;;;;;;;5052931;28;20456;-64
2021/03/27 02:07:06;;;;;;;13.40;12.20;;;;;;;;;;5053517;28;20534;-67
2021/03/27 02:09:45;;;;;;;12.67;11.60;;;;;;;;;;5050201;28;20538;-65
2021/03/27 02:12:15;;;;;;;13.50;12.27;;;;;;;;;;5046211;28;20939;-64
2021/03/27 02:14:45;;;;;;;13.60;12.40;;;;;;;;;;5052163;28;20479;-67
2021/03/27 02:17:15;;;;;;;12.67;11.37;;;;;;;;;;5053418;28;20958;-67
2021/03/27 02:20:02;;;;;;;13.53;12.27;;;;;;;;;;5053024;28;20464;-63
2021/03/27 02:22:31;;;;;;;14.00;12.70;;;;;;;;;;5048750;28;20445;-65
2021/03/27 02:25:13;;;;;;;13.33;12.03;;;;;;;;;;5040222;28;20444;-64
2021/03/27 02:27:43;;;;;;;14.00;12.50;;;;;;;;;;5052500;28;20436;-65
2021/03/27 02:30:16;;;;;;;13.67;12.37;;;;;;;;;;5053598;28;20467;-65
2021/03/27 02:33:03;;;;;;;12.83;11.70;;;;;;;;;;5052201;28;20450;-64
2021/03/27 02:35:35;;;;;;;12.10;10.90;;;;;;;;;;5045615;28;20478;-65
2021/03/27 02:38:09;;;;;;;12.97;11.77;;;;;;;;;;5050739;28;20448;-65
2021/03/27 02:40:37;;;;;;;12.60;11.50;;;;;;;;;;5034353;28;21042;-65
2021/03/27 02:43:06;;;;;;;12.80;11.57;;;;;;;;;;5047242;28;20493;-64
2021/03/27 02:45:35;;;;;;;13.10;11.70;;;;;;;;;;5051645;28;20460;-65
2021/03/27 02:48:07;;;;;;;12.63;11.53;;;;;;;;;;5051922;28;20516;-65
2021/03/27 02:50:49;;;;;;;14.03;12.63;;;;;;;;;;5046435;28;20526;-65
2021/03/27 02:53:17;;;;;;;12.90;11.60;;;;;;;;;;5053562;28;20432;-65
2021/03/27 02:55:47;;;;;;;13.73;12.43;;;;;;;;;;5051964;28;20544;-65
2021/03/27 02:58:19;;;;;;;13.17;12.07;;;;;;;;;;5052760;28;20456;-64
2021/03/27 03:00:55;;;;;;;13.00;11.73;;;;;;;;;;5051822;28;20475;-65
2021/03/27 03:03:24;;;;;;;11.83;10.73;;;;;;;;;;5052760;28;20446;-68
2021/03/27 03:05:53;;;;;;;11.90;10.70;;;;;;;;;;5039532;28;20532;-65
2021/03/27 03:08:23;;;;;;;12.17;11.03;;;;;;;;;;5052732;28;20543;-66
2021/03/27 03:10:54;;;;;;;12.70;11.60;;;;;;;;;;5052155;28;20487;-65
2021/03/27 03:13:23;;;;;;;11.47;10.47;;;;;;;;;;5053006;28;20470;-64
2021/03/27 03:15:54;;;;;;;13.50;12.10;;;;;;;;;;5039845;28;20487;-64
2021/03/27 03:18:30;;;;;;;11.10;10.10;;;;;;;;;;5052125;28;20818;-64
2021/03/27 03:20:58;;;;;;;11.70;10.53;;;;;;;;;;5051492;28;20494;-65
2021/03/27 03:23:29;;;;;;;11.60;10.40;;;;;;;;;;5051794;28;20509;-65
2021/03/27 03:26:01;;;;;;;12.97;11.37;;;;;;;;;;5046585;28;20453;-65
2021/03/27 03:28:30;;;;;;;11.37;10.37;;;;;;;;;;5041360;28;20448;-64
2021/03/27 03:31:06;;;;;;;11.47;10.37;;;;;;;;;;5051224;28;20558;-66
2021/03/27 03:33:40;;;;;;;10.87;9.87;;;;;;;;;;5044867;28;20535;-65
2021/03/27 03:36:08;;;;;;;13.43;11.30;;;;;;;;;;5049579;28;20476;-65
2021/03/27 03:38:44;;;;;;;14.87;10.50;;;;;;;;;;5045278;28;20887;-65
2021/03/27 03:41:13;;;;;;;10.10;9.20;;;;;;;;;;5050060;28;20855;-65
2021/03/27 03:43:47;;;;;;;10.87;9.73;;;;;;;;;;5051266;28;20536;-64
2021/03/27 03:46:23;;;;;;;10.80;9.80;;;;;;;;;;5050839;28;20439;-65
2021/03/27 03:49:07;;;;;;;10.87;9.80;;;;;;;;;;5042508;28;20505;-65
2021/03/27 03:51:40;;;;;;;10.30;9.40;;;;;;;;;;5033308;28;20456;-65
2021/03/27 03:54:17;;;;;;;11.13;9.80;;;;;;;;;;5038663;28;20450;-67
2021/03/27 03:56:46;;;;;;;11.23;10.10;;;;;;;;;;5050578;28;20447;-67
2021/03/27 03:59:21;;;;;;;11.03;9.33;;;;;;;;;;5048649;28;20475;-67
2021/03/27 04:01:51;;;;;;;11.07;10.13;;;;;;;;;;5051525;28;20463;-68
2021/03/27 04:04:20;;;;;;;9.93;8.93;;;;;;;;;;5051739;28;20443;-68
2021/03/27 04:06:52;;;;;;;10.30;9.40;;;;;;;;;;5051181;28;20454;-66
2021/03/27 04:09:21;;;;;;;10.40;9.50;;;;;;;;;;5051528;28;20543;-68
2021/03/27 04:11:53;;;;;;;11.23;9.83;;;;;;;;;;5050462;28;20951;-67
2021/03/27 04:14:31;;;;;;;11.07;9.93;;;;;;;;;;5041575;28;20959;-67
2021/03/27 04:17:01;;;;;;;11.03;10.03;;;;;;;;;;5047929;28;20448;-67
2021/03/27 04:19:29;;;;;;;12.37;11.37;;;;;;;;;;5045493;28;20483;-66
2021/03/27 04:22:04;;;;;;;13.10;12.00;;;;;;;;;;5051445;28;20509;-67
2021/03/27 04:24:33;;;;;;;15.30;13.87;;;;;;;;;;5050860;28;20434;-67
2021/03/27 04:27:02;;;;;;;13.97;12.70;;;;;;;;;;5044903;28;20530;-67
2021/03/27 04:29:38;;;;;;;13.13;11.77;;;;;;;;;;5051225;28;20480;-68
2021/03/27 04:32:23;;;;;;;12.33;11.23;;;;;;;;;;5051309;28;20455;-68
2021/03/27 04:34:52;;;;;;;12.10;11.00;;;;;;;;;;5050896;28;20520;-67
2021/03/27 04:37:26;;;;;;;11.50;10.60;;;;;;;;;;5051661;28;20455;-68
2021/03/27 04:39:57;;;;;;;9.60;8.90;;;;;;;;;;5049838;28;20464;-67
2021/03/27 04:42:26;;;;;;;11.90;10.90;;;;;;;;;;5050944;28;21027;-66
2021/03/27 04:44:57;;;;;;;12.07;11.07;;;;;;;;;;5050071;28;20452;-67
2021/03/27 04:47:26;;;;;;;11.30;10.30;;;;;;;;;;5051050;28;20444;-66
2021/03/27 04:49:55;;;;;;;12.07;10.97;;;;;;;;;;5050685;28;20475;-66
2021/03/27 04:52:26;;;;;;;9.70;8.80;;;;;;;;;;5051220;28;20462;-67
2021/03/27 04:54:55;;;;;;;8.83;7.30;;;;;;;;;;5050063;28;20475;-66
2021/03/27 04:57:30;;;;;;;5.30;4.80;;;;;;;;;;5049982;28;20806;-66
2021/03/27 05:00:09;;;;;;;5.00;4.60;;;;;;;;;;5050766;28;20468;-67
2021/03/27 05:02:40;;;;;;;5.10;4.70;;;;;;;;;;5050205;28;20520;-66
2021/03/27 05:05:13;;;;;;;4.83;4.43;;;;;;;;;;5051060;28;20453;-66
2021/03/27 05:07:45;;;;;;;5.90;5.40;;;;;;;;;;5050415;28;20899;-64
2021/03/27 05:10:14;;;;;;;5.80;5.30;;;;;;;;;;5056937;22;20492;-63
2021/03/27 05:12:53;;;;;;;5.20;4.80;;;;;;;;;;5045163;28;20470;-63
2021/03/27 05:15:23;;;;;;;5.00;4.60;;;;;;;;;;5054805;28;20535;-63
2021/03/27 05:17:56;;;;;;;4.93;4.63;;;;;;;;;;5054752;28;20451;-63
2021/03/27 05:20:25;;;;;;;3.47;3.27;;;;;;;;;;5042409;28;21245;-63
2021/03/27 05:22:58;;;;;;;4.20;3.90;;;;;;;;;;5031658;28;20936;-63
2021/03/27 05:25:31;;;;;;;3.90;3.70;;;;;;;;;;5032789;28;20539;-63
2021/03/27 05:28:09;;;;;;;4.13;3.83;;;;;;;;;;5034820;28;20957;-62
2021/03/27 05:30:41;;;;;;;4.27;3.90;;;;;;;;;;5033781;28;21009;-63
2021/03/27 05:33:21;;;;;;;3.87;3.60;;;;;;;;;;5034763;28;20819;-62
2021/03/27 05:35:52;;;;;;;4.10;3.80;;;;;;;;;;5046432;28;21005;-63
2021/03/27 05:38:22;;;;;;;4.83;4.53;;;;;;;;;;5039222;28;20528;-63
2021/03/27 05:41:19;;;;;;;5.30;4.90;;;;;;;;;;5040972;28;20511;-63
2021/03/27 05:44:07;;;;;;;5.20;4.90;;;;;;;;;;5034670;28;20429;-62
2021/03/27 05:47:02;;;;;;;5.57;5.17;;;;;;;;;;5014563;28;21003;-63
2021/03/27 05:49:41;;;;;;;4.93;4.63;;;;;;;;;;5031017;28;20436;-63
2021/03/27 05:52:20;;;;;;;5.30;5.00;;;;;;;;;;5034448;28;20486;-62
2021/03/27 05:55:15;;;;;;;5.00;4.70;;;;;;;;;;5034499;28;20547;-62
2021/03/27 05:58:01;;;;;;;5.23;4.83;;;;;;;;;;5033928;28;20512;-62
2021/03/27 06:00:36;;;;;;;4.97;4.67;;;;;;;;;;5023179;28;20471;-62
2021/03/27 06:03:17;;;;;;;5.53;5.20;;;;;;;;;;5038547;28;21073;-63
2021/03/27 06:06:03;;;;;;;5.30;4.90;;;;;;;;;;5043848;28;20460;-62
2021/03/27 06:08:39;;;;;;;5.60;5.20;;;;;;;;;;5034694;28;20760;-62
2021/03/27 06:11:21;;;;;;;5.53;5.13;;;;;;;;;;5033894;28;20583;-63
2021/03/27 06:13:51;;;;;;;6.30;5.80;;;;;;;;;;5031836;28;20823;-62
2021/03/27 06:16:31;;;;;;;6.10;5.60;;;;;;;;;;5033822;28;20492;-62
2021/03/27 06:19:07;;;;;;;5.67;5.27;;;;;;;;;;5023325;28;20510;-63
2021/03/27 06:21:42;;;;;;;6.03;5.53;;;;;;;;;;5033508;28;21032;-63
2021/03/27 06:24:17;;;;;;;6.40;5.90;;;;;;;;;;5042182;28;20462;-62
2021/03/27 06:27:02;;;;;;;6.20;5.80;;;;;;;;;;5033442;28;20831;-63
2021/03/27 06:29:52;;;;;;;6.20;5.70;;;;;;;;;;5033468;28;20437;-63
2021/03/27 06:32:52;;;;;;;6.13;5.60;;;;;;;;;;5034297;28;20452;-64
2021/03/27 06:35:26;;;;;;;6.07;5.67;;;;;;;;;;5047298;28;20471;-64
2021/03/27 06:38:01;;;;;;;6.40;5.90;;;;;;;;;;5034037;28;20563;-63
2021/03/27 06:40:43;;;;;;;6.20;5.80;;;;;;;;;;5036970;28;20467;-63
2021/03/27 06:43:19;;;;;;;6.97;6.37;;;;;;;;;;5040255;28;20794;-64
2021/03/27 06:45:53;;;;;;;7.17;6.67;;;;;;;;;;5034084;28;20543;-64
2021/03/27 06:48:43;;;;;;;7.40;6.90;;;;;;;;;;5033175;28;20947;-64
2021/03/27 06:51:24;;;;;;;6.60;6.10;;;;;;;;;;5025955;28;20551;-63
2021/03/27 06:54:07;;;;;;;6.80;6.30;;;;;;;;;;5035596;28;20544;-63
2021/03/27 06:56:45;;;;;;;8.00;7.40;;;;;;;;;;5032775;28;20476;-63
2021/03/27 06:59:19;;;;;;;7.70;7.20;;;;;;;;;;5032719;28;20962;-64
2021/03/27 07:01:56;;;;;;;7.60;7.10;;;;;;;;;;5033375;28;20530;-64
2021/03/27 07:04:41;;;;;;;7.03;6.63;;;;;;;;;;5033348;28;20520;-64
2021/03/27 07:07:28;;;;;;;7.43;6.90;;;;;;;;;;5016256;28;20441;-64
2021/03/27 07:10:19;;;;;;;8.10;7.50;;;;;;;;;;5033048;28;20451;-64
2021/03/27 07:13:05;;;;;;;8.77;8.07;;;;;;;;;;5050031;28;20479;-64
2021/03/27 07:15:43;;;;;;;8.70;8.00;;;;;;;;;;5034029;28;20480;-64
2021/03/27 07:18:23;;;;;;;7.00;6.00;;;;;;;;;;5037621;28;20587;-64
2021/03/27 07:21:08;;;;;;;7.53;6.93;;;;;;;;;;5032902;28;20499;-64
2021/03/27 07:23:52;;;;;;;9.37;8.67;;;;;;;;;;5033284;28;20448;-64
2021/03/27 07:26:42;;;;;;;10.57;9.57;;;;;;;;;;5032676;28;20483;-64
2021/03/27 07:29:31;;;;;;;10.40;9.60;;;;;;;;;;5026982;28;20525;-64
2021/03/27 07:32:09;;;;;;;9.50;8.57;;;;;;;;;;5034193;28;20503;-64
2021/03/27 07:34:45;;;;;;;10.10;9.20;;;;;;;;;;5042739;28;20443;-63
2021/03/27 07:37:26;;;;;;;6.93;6.30;;;;;;;;;;5033975;28;20437;-63
2021/03/27 07:40:06;;;;;;;5.93;5.43;;;;;;;;;;5031980;28;20532;-63
2021/03/27 07:42:53;;;;;;;5.60;5.20;;;;;;;;;;5032410;28;20433;-63
2021/03/27 07:45:41;;;;;;;5.03;4.53;;;;;;;;;;5032086;28;21157;-63
2021/03/27 07:48:25;;;;;;;4.77;4.37;;;;;;;;;;5028204;28;20535;-63
2021/03/27 07:51:02;;;;;;;5.30;4.83;;;;;;;;;;5030726;28;20556;-63
2021/03/27 07:53:43;;;;;;;5.00;4.60;;;;;;;;;;5032004;28;21027;-63
2021/03/27 07:56:25;;;;;;;5.83;5.23;;;;;;;;;;5044050;28;20492;-63
2021/03/27 07:59:07;;;;;;;5.40;4.90;;;;;;;;;;5021248;28;20452;-63
2021/03/27 08:01:44;;;;;;;5.47;4.97;;;;;;;;;;5031031;28;20515;-62
2021/03/27 08:04:29;;;;;;;5.43;4.93;;;;;;;;;;5025034;28;20443;-63
2021/03/27 08:06:59;;;;;;;5.93;5.53;;;;;;;;;;5012508;28;20433;-62
2021/03/27 08:09:44;;;;;;;6.10;5.60;;;;;;;;;;5033531;28;20609;-63
2021/03/27 08:12:29;;;;;;;5.70;5.20;;;;;;;;;;5022179;28;20479;-63
2021/03/27 08:15:10;;;;;;;6.90;5.30;;;;;;;;;;5031761;28;20984;-63
2021/03/27 08:17:50;;;;;;;5.03;4.63;;;;;;;;;;5031869;28;20455;-63
2021/03/27 08:20:33;;;;;;;5.40;4.77;;;;;;;;;;5031040;28;20567;-63
2021/03/27 08:23:16;;;;;;;6.60;6.00;;;;;;;;;;5043317;28;20492;-64
2021/03/27 08:25:45;;;;;;;3.37;3.07;;;;;;;;;;5030980;28;20458;-63
2021/03/27 08:28:29;;;;;;;3.43;3.13;;;;;;;;;;5031883;28;20457;-64
2021/03/27 08:31:10;;;;;;;6.33;2.60;;;;;;;;;;4996694;28;20555;-61
2021/03/27 08:33:56;;;;;;;3.40;2.60;;;;;;;;;;5015820;28;20467;-62
2021/03/27 08:36:47;;;;;;;3.47;2.50;;;;;;;;;;5031012;28;20487;-62
2021/03/27 08:39:32;;;;;;;2.67;2.40;;;;;;;;;;5031242;28;20444;-61
2021/03/27 08:42:06;;;;;;;3.43;2.00;;;;;;;;;;5029963;28;20491;-62
2021/03/27 08:44:47;;;;;;;3.40;2.03;;;;;;;;;;5032328;28;20462;-62
2021/03/27 08:47:31;;;;;;;9.17;2.43;;;;;;;;;;5030573;28;20586;-63
2021/03/27 08:50:13;;;;;;;5.67;2.27;;;;;;;;;;5031445;28;20428;-62
2021/03/27 08:52:54;;;;;;;6.90;2.57;;;;;;;;;;5012956;28;20449;-64
2021/03/27 08:55:35;;;;;;;4.73;2.97;;;;;;;;;;5030646;28;20476;-64
2021/03/27 08:58:09;;;;;;;6.57;2.80;;;;;;;;;;5032650;28;20440;-63
2021/03/27 09:01:05;;;;;;;6.20;2.83;;;;;;;;;;5031838;28;20558;-63
2021/03/27 09:03:49;;;;;;;6.90;2.80;;;;;;;;;;5034679;28;20834;-63
2021/03/27 09:06:29;;;;;;;3.87;2.33;;;;;;;;;;5045579;28;20801;-63
2021/03/27 09:09:01;;;;;;;3.50;2.60;;;;;;;;;;5042843;28;20436;-63
2021/03/27 09:11:36;;;;;;;6.13;3.03;;;;;;;;;;5046032;28;20476;-63
2021/03/27 09:14:26;;;;;;;3.87;3.00;;;;;;;;;;5039225;28;20455;-64
2021/03/27 09:17:13;;;;;;;6.47;2.67;;;;;;;;;;5034600;28;20583;-63
2021/03/27 09:19:49;;;;;;;10.10;2.50;;;;;;;;;;5030475;28;20594;-63
2021/03/27 09:22:39;;;;;;;3.67;1.80;;;;;;;;;;5035431;28;20480;-63
2021/03/27 09:25:12;;;;;;;4.73;2.23;;;;;;;;;;5034858;28;20441;-64
2021/03/27 09:27:45;;;;;;;3.60;1.77;;;;;;;;;;5035026;28;20433;-63
2021/03/27 09:30:19;;;;;;;5.63;2.73;;;;;;;;;;5035084;28;20479;-63
2021/03/27 09:32:50;;;;;;;4.80;2.50;;;;;;;;;;5034911;28;20448;-63
2021/03/27 09:35:30;;;;;;;5.87;2.53;;;;;;;;;;5035378;28;20555;-64
2021/03/27 09:38:18;;;;;;;4.60;2.23;;;;;;;;;;5035039;28;20436;-63
2021/03/27 09:40:59;;;;;;;2.73;2.50;;;;;;;;;;5045369;28;20997;-63
2021/03/27 09:43:51;;;;;;;2.43;2.00;;;;;;;;;;5037421;28;20444;-63
2021/03/27 09:46:25;;;;;;;3.33;1.80;;;;;;;;;;5054475;28;20431;-63
2021/03/27 09:48:58;;;;;;;3.83;2.17;;;;;;;;;;5045391;28;20535;-63
2021/03/27 09:51:33;;;;;;;2.97;1.93;;;;;;;;;;5034912;28;20618;-63
2021/03/27 09:54:04;;;;;;;4.80;2.37;;;;;;;;;;5042801;28;20458;-63
2021/03/27 09:56:37;;;;;;;5.67;1.97;;;;;;;;;;5034435;28;20473;-63
2021/03/27 09:59:11;;;;;;;3.83;1.77;;;;;;;;;;5044300;28;20534;-64
2021/03/27 10:01:41;;;;;;;2.20;2.00;;;;;;;;;;5054236;28;20560;-63
2021/03/27 10:04:13;;;;;;;6.43;2.10;;;;;;;;;;5034837;28;20953;-64
2021/03/27 10:06:47;;;;;;;5.30;1.90;;;;;;;;;;5043842;28;20454;-64
2021/03/27 10:09:21;;;;;;;4.10;2.87;;;;;;;;;;5052371;28;20962;-64
2021/03/27 10:11:50;;;;;;;4.53;1.80;;;;;;;;;;5053990;28;21045;-63
2021/03/27 10:14:20;;;;;;;4.07;2.40;;;;;;;;;;5042895;28;20518;-63
2021/03/27 10:16:51;;;;;;;3.10;1.83;;;;;;;;;;5019420;28;20592;-63
2021/03/27 10:19:29;;;;;;;5.33;2.10;;;;;;;;;;5036100;28;21050;-63
2021/03/27 10:22:20;;;;;;;3.67;2.03;;;;;;;;;;5033420;28;20983;-64
2021/03/27 10:24:49;;;;;;;2.97;1.50;;;;;;;;;;5032355;28;20538;-66
2021/03/27 10:27:17;;;;;;;2.60;2.23;;;;;;;;;;5053754;28;20444;-64
2021/03/27 10:29:51;;;;;;;6.17;2.10;;;;;;;;;;5035636;28;20531;-64
2021/03/27 10:32:26;;;;;;;2.70;1.93;;;;;;;;;;5026271;28;20469;-64
2021/03/27 10:34:54;;;;;;;5.50;2.37;;;;;;;;;;5034217;28;20523;-64
2021/03/27 10:37:26;;;;;;;3.87;1.60;;;;;;;;;;5033451;28;20452;-64
2021/03/27 10:40:00;;;;;;;2.83;1.30;;;;;;;;;;5033712;28;20552;-64
2021/03/27 10:42:41;;;;;;;2.53;1.53;;;;;;;;;;5033734;28;20512;-65
2021/03/27 10:45:19;;;;;;;4.17;3.63;;;;;;;;;;5033430;28;20518;-70
2021/03/27 10:47:51;;;;;;;4.97;4.53;;;;;;;;;;5026916;28;20455;-68
2021/03/27 10:50:20;;;;;;;5.10;4.70;;;;;;;;;;5031453;28;20514;-68
2021/03/27 10:53:06;;;;;;;5.40;4.90;;;;;;;;;;5033814;28;20444;-68
2021/03/27 10:55:51;;;;;;;5.17;4.70;;;;;;;;;;5013734;28;20557;-71
2021/03/27 10:58:26;;;;;;;4.77;4.27;;;;;;;;;;5019857;28;20452;-69
2021/03/27 11:00:56;;;;;;;5.87;5.30;;;;;;;;;;5039914;28;20467;-68
2021/03/27 11:03:42;;;;;;;4.80;4.40;;;;;;;;;;5036492;28;20448;-71
2021/03/27 11:06:15;;;;;;;4.23;3.53;;;;;;;;;;5052534;28;20934;-66
2021/03/27 11:09:12;;;;;;;4.37;3.57;;;;;;;;;;5047782;28;20544;-67
2021/03/27 11:11:50;;;;;;;3.50;3.13;;;;;;;;;;5068131;22;20970;-66
2021/03/27 11:14:31;;;;;;;3.50;3.00;;;;;;;;;;5051340;28;20889;-65
2021/03/27 11:17:16;;;;;;;3.63;3.10;;;;;;;;;;5049105;28;20484;-65
2021/03/27 11:19:54;;;;;;;3.17;2.87;;;;;;;;;;5052202;28;20454;-66
2021/03/27 11:22:30;;;;;;;4.43;2.67;;;;;;;;;;5032448;28;20991;-65
2021/03/27 11:25:15;;;;;;;4.37;2.77;;;;;;;;;;5043953;28;20471;-65
2021/03/27 11:27:51;;;;;;;5.40;2.90;;;;;;;;;;5042324;28;20475;-65
2021/03/27 11:30:21;;;;;;;4.10;3.00;;;;;;;;;;5052688;28;20447;-65
2021/03/27 11:32:51;;;;;;;4.43;3.13;;;;;;;;;;5052707;28;20443;-65
2021/03/27 11:35:21;;;;;;;4.23;3.70;;;;;;;;;;5052052;28;20479;-65
2021/03/27 11:37:52;;;;;;;4.00;2.53;;;;;;;;;;5046096;28;20456;-65
2021/03/27 11:40:25;;;;;;;5.57;3.07;;;;;;;;;;5052290;28;20814;-65
2021/03/27 11:42:57;;;;;;;4.60;3.67;;;;;;;;;;5052150;28;20493;-66
2021/03/27 11:45:25;;;;;;;6.20;3.87;;;;;;;;;;5052723;28;20519;-65
2021/03/27 11:47:56;;;;;;;4.47;3.03;;;;;;;;;;5051742;28;20984;-66
2021/03/27 11:50:35;;;;;;;6.00;3.30;;;;;;;;;;5050436;28;20452;-66
2021/03/27 11:53:07;;;;;;;5.83;3.30;;;;;;;;;;5043135;28;20475;-68
2021/03/27 11:55:35;;;;;;;5.20;3.77;;;;;;;;;;5048929;28;20502;-66
2021/03/27 11:58:06;;;;;;;4.13;3.60;;;;;;;;;;5041958;28;20817;-66
2021/03/27 12:03:26;;;;;;;6.27;4.50;;;;;;;;;;5051296;28;20528;-66
2021/03/27 12:05:57;;;;;;;6.50;3.70;;;;;;;;;;5051222;28;20432;-66
2021/03/27 12:08:29;;;;;;;5.83;3.47;;;;;;;;;;5048151;28;20458;-66
2021/03/27 12:11:03;;;;;;;4.97;3.50;;;;;;;;;;5051703;28;20478;-66
2021/03/27 12:13:39;;;;;;;6.43;3.97;;;;;;;;;;5052193;28;20527;-66
2021/03/27 12:16:11;;;;;;;7.07;3.40;;;;;;;;;;5051373;28;20482;-66
2021/03/27 12:18:59;;;;;;;6.97;3.47;;;;;;;;;;5052221;28;20432;-66
2021/03/27 12:21:29;;;;;;;8.13;3.70;;;;;;;;;;5050677;28;20546;-65
2021/03/27 12:23:59;;;;;;;8.20;3.03;;;;;;;;;;5050688;28;20566;-65
2021/03/27 12:26:30;;;;;;;4.17;3.30;;;;;;;;;;5046466;28;20447;-65
2021/03/27 12:29:00;;;;;;;7.03;2.83;;;;;;;;;;5051283;28;20977;-65
2021/03/27 12:31:33;;;;;;;4.30;2.60;;;;;;;;;;5052159;28;20897;-65
2021/03/27 12:34:08;;;;;;;4.57;2.47;;;;;;;;;;5042111;28;20451;-65
2021/03/27 12:36:37;;;;;;;5.30;3.30;;;;;;;;;;5050112;28;20549;-66
2021/03/27 12:39:10;;;;;;;5.80;3.00;;;;;;;;;;5051861;28;20447;-65
2021/03/27 12:41:40;;;;;;;7.50;3.80;;;;;;;;;;5049916;28;20574;-66
2021/03/27 12:44:09;;;;;;;7.00;4.13;;;;;;;;;;5051874;28;20443;-65
2021/03/27 12:46:43;;;;;;;6.57;3.90;;;;;;;;;;5051074;28;20444;-66
2021/03/27 12:49:22;;;;;;;6.80;3.90;;;;;;;;;;5051425;28;20424;-67
2021/03/27 12:51:52;;;;;;;10.00;4.60;;;;;;;;;;5037588;28;20472;-65
2021/03/27 12:54:35;;;;;;;13.47;4.33;;;;;;;;;;5048810;28;20455;-65
2021/03/27 12:57:18;;;;;;;9.57;4.00;;;;;;;;;;5051705;28;20570;-67
2021/03/27 12:59:52;;;;;;;7.70;3.70;;;;;;;;;;5045862;28;20463;-66
2021/03/27 13:02:33;;;;;;;8.13;4.40;;;;;;;;;;5051123;28;20836;-67
2021/03/27 13:05:10;;;;;;;8.40;4.40;;;;;;;;;;5031030;28;20968;-66
2021/03/27 13:07:40;;;;;;;9.40;4.47;;;;;;;;;;5051477;28;20857;-66
2021/03/27 13:10:21;;;;;;;9.70;5.03;;;;;;;;;;5037595;28;20530;-65
2021/03/27 13:12:54;;;;;;;6.00;4.20;;;;;;;;;;5051956;28;20448;-66
2021/03/27 13:15:38;;;;;;;10.70;4.60;;;;;;;;;;5051318;28;20475;-66
2021/03/27 13:18:29;;;;;;;10.60;5.23;;;;;;;;;;5051387;28;20459;-65
2021/03/27 13:21:01;;;;;;;8.40;5.20;;;;;;;;;;5045222;28;20470;-63
2021/03/27 13:23:31;;;;;;;9.10;6.07;;;;;;;;;;5049051;28;20539;-66
2021/03/27 13:26:00;;;;;;;7.83;5.30;;;;;;;;;;5040406;28;20455;-65
2021/03/27 13:28:30;;;;;;;8.73;4.77;;;;;;;;;;5038968;28;20528;-66
2021/03/27 13:31:00;;;;;;;10.07;5.27;;;;;;;;;;5031255;28;21006;-65
2021/03/27 13:33:29;;;;;;;8.13;4.70;;;;;;;;;;5031562;28;20472;-66
2021/03/27 13:36:05;;;;;;;8.77;4.87;;;;;;;;;;5031009;28;20488;-66
2021/03/27 13:38:36;;;;;;;11.20;5.50;;;;;;;;;;5043845;28;20534;-65
2021/03/27 13:41:08;;;;;;;12.23;4.90;;;;;;;;;;5052333;28;20558;-66
2021/03/27 13:43:37;;;;;;;10.90;5.50;;;;;;;;;;5051318;28;20439;-66
2021/03/27 13:46:06;;;;;;;9.67;5.93;;;;;;;;;;5055206;28;20927;-66
2021/03/27 13:48:50;;;;;;;8.53;5.20;;;;;;;;;;5055584;28;20654;-66
2021/03/27 13:51:22;;;;;;;9.00;5.00;;;;;;;;;;5052795;28;20467;-66
2021/03/27 13:54:04;;;;;;;9.87;5.33;;;;;;;;;;5047142;28;20530;-66
2021/03/27 13:56:44;;;;;;;12.40;6.00;;;;;;;;;;5054584;28;20532;-66
2021/03/27 13:59:22;;;;;;;15.20;5.70;;;;;;;;;;5054621;28;20542;-66
2021/03/27 14:02:09;;;;;;;9.00;4.73;;;;;;;;;;5054177;28;21035;-66
2021/03/27 14:04:37;;;;;;;8.50;4.87;;;;;;;;;;5054335;28;20861;-66
2021/03/27 14:07:06;;;;;;;7.17;4.80;;;;;;;;;;5052744;28;20451;-66
2021/03/27 14:09:36;;;;;;;11.83;4.93;;;;;;;;;;5054643;28;20559;-66
2021/03/27 14:12:06;;;;;;;9.00;4.57;;;;;;;;;;5053991;28;20471;-66
2021/03/27 14:14:34;;;;;;;7.90;4.80;;;;;;;;;;5054038;28;20903;-67
2021/03/27 14:17:07;;;;;;;10.43;4.93;;;;;;;;;;5053714;28;20617;-65
2021/03/27 14:19:53;;;;;;;12.33;5.40;;;;;;;;;;5054127;28;20482;-66
2021/03/27 14:22:33;;;;;;;11.00;5.47;;;;;;;;;;5034224;28;20548;-67
2021/03/27 14:25:08;;;;;;;9.17;5.50;;;;;;;;;;5034258;28;20451;-66
2021/03/27 14:27:41;;;;;;;8.63;4.73;;;;;;;;;;5033737;28;20816;-66
2021/03/27 14:30:15;;;;;;;9.93;5.03;;;;;;;;;;5034298;28;20544;-66
2021/03/27 14:32:53;;;;;;;15.13;5.27;;;;;;;;;;5034088;28;20825;-66
2021/03/27 14:35:34;;;;;;;8.37;4.87;;;;;;;;;;5042452;28;20989;-66
2021/03/27 14:38:07;;;;;;;8.87;4.60;;;;;;;;;;5053566;28;20453;-66
2021/03/27 14:40:39;;;;;;;9.80;5.40;;;;;;;;;;5053745;28;20432;-66
2021/03/27 14:43:24;;;;;;;6.83;5.13;;;;;;;;;;5053733;28;20448;-66
2021/03/27 14:45:58;;;;;;;9.10;5.10;;;;;;;;;;5053621;28;20918;-65
2021/03/27 14:48:28;;;;;;;10.27;5.17;;;;;;;;;;5052878;28;20475;-66
2021/03/27 14:51:02;;;;;;;9.90;4.90;;;;;;;;;;5051831;28;20471;-66
2021/03/27 14:53:33;;;;;;;8.40;4.80;;;;;;;;;;5033893;28;20456;-66
2021/03/27 14:56:03;;;;;;;6.47;4.57;;;;;;;;;;5048345;28;20485;-65
2021/03/27 14:58:34;;;;;;;8.30;4.50;;;;;;;;;;5046099;28;20456;-65
2021/03/27 15:01:07;;;;;;;9.73;5.10;;;;;;;;;;5050735;28;20567;-66
2021/03/27 15:03:38;;;;;;;6.27;4.60;;;;;;;;;;5053295;28;20444;-63
2021/03/27 15:06:17;;;;;;;9.73;4.73;;;;;;;;;;5052898;28;20879;-63
2021/03/27 15:08:45;;;;;;;10.40;4.77;;;;;;;;;;5053117;28;20443;-63
2021/03/27 15:11:19;;;;;;;12.73;5.20;;;;;;;;;;5052836;28;20990;-64
2021/03/27 15:13:53;;;;;;;7.93;4.70;;;;;;;;;;5053558;28;20505;-64
2021/03/27 15:16:37;;;;;;;8.93;4.83;;;;;;;;;;5052853;28;20563;-63
2021/03/27 15:19:08;;;;;;;14.03;6.10;;;;;;;;;;5053353;28;20424;-63
2021/03/27 15:21:42;;;;;;;9.53;4.60;;;;;;;;;;5053218;28;20464;-65
2021/03/27 15:24:17;;;;;;;7.90;4.90;;;;;;;;;;5053145;28;20631;-63